Flight APNVIP2X

  • Submitted By: Krzysztof H. Blaszkow
  • Departure Airport: Ireland West Airport Knock (EIKN)
  • Arrival Airport: Dublin (EIDW)
  • Aircraft: BE58 (EJ-IAWH)
  • Flight Time: 01.09.44
  • Date Submitted: 02/10/2017
  • Status: Accepted
Flight Details
Gross Revenue:
(5 load / € 4,000.00 per unit
€ 20,000.00
Fuel Cost:
(44.4521 fuel used @ 0.45 / unit)
€ 20.00

Additional Log Information:

View Log

[20:36] - Carenado BARON B58 GOLD GREEN
[20:36] - Flight APNVIP2X is ready to depart EIKN with a final destination of EIDW.
[20:36] - Parking Brake Applied
[20:36] - Beacon Light ON
[20:36] - Instrument Lights ON
[20:36] - Wing Lights ON
[20:36] - Boarding
[20:36] - ADF1 - 284.0
[20:36] - ADF2 - 240.0
[20:36] - NAV1 - 117.40
[20:36] - NAV2 - 110.60
[20:36] - COM1 - 131.15
[20:36] - COM2 - 127.80
[20:36] - Transponder - 2000
[20:40] - Transponder - 6601
[20:41] - Engine 1 Started
[20:41] - Engine 2 Started
[20:43] - Taxi Lights ON 3AGL
[20:45] - Parking Brake Released
[20:46] - Taxiing to Runway
[20:47] - Landing Lights ON 3AGL
[20:47] - Taxi Lights OFF 3AGL
[20:47] - Strobe Lights ON 3AGL
[20:49] - Taking Off with 5 passengers on board
[20:50] - Take off at 115kts, with a pitch of 3deg and 292lbs of fuel on board
[20:50] - Wind Heading 71 | Wind Speed 6kts | Temperature 3 deg C
[20:50] - METAR Departure: EIKN 102000Z 05005KT 030V090 9999 FEW024 OVC036 01/M02 Q1030 NOSIG

[20:50] - Gear up at 101AGL
[20:50] - Climbing to TOC
[20:53] - AutoPilot Engaged at 4921AGL
[20:57] - NAV1 - 114.90
[20:59] - COM1 - 121.17
[21:00] - TOC reached
[21:00] - Cruise started
[21:01] - COM1 - 129.17
[21:14] - NAV1 - 108.90
[21:15] - TOD reached
[21:15] - Descending to destination
[21:17] - AutoPilot Disengaged at 6030AGL
[21:18] - Landing Shortly
[21:18] - AutoPilot Engaged at 3357AGL
[21:19] - AutoPilot Disengaged at 3205AGL
[21:19] - AutoPilot Engaged at 3202AGL
[21:20] - AutoPilot Disengaged at 3185AGL
[21:20] - COM1 - 118.60
[21:21] - Flaps to position 1 at 1037ft and 174kts
[21:21] - Gear down at 781AGL
[21:22] - Landed at -94fpm. With 202lbs of fuel onboard and a pitch angle of 2deg.
[21:22] - Wind Heading 15 | Wind Speed 6kts | Temperature 3 deg C
[21:22] - METAR Arrival: EIDW 102100Z 03007KT 9999 FEW020 SCT025 BKN040 03/M03 Q1030 NOSIG

[21:22] - Flaps to position 0
[21:23] - Taxiing to Gate
[21:29] - Landing Lights OFF 3AGL
[21:29] - Taxi Lights ON 3AGL
[21:29] - Strobe Lights OFF 3AGL
[21:35] - Taxi Lights OFF 3AGL
[21:35] - Parking Brake Applied
[21:35] - Arrived safely at EIDW. We hope you enjoyed your flight!
[21:36] - Engine 1 Stopped
[21:36] - Engine 2 Stopped
[21:36] - Taxi Lights ON 3AGL
[21:36] - Taxi Lights OFF 3AGL
[21:47] - Carenado BARON B58 GOLD GREEN
[21:47] - MaxSim Rate: 1x
[21:47] - SiouxAcars ver: 1.0.1.2

Route Map